map of UPN home
UPN - Airport
Location
City:  Uruapan, Michoacán de Ocampo, México
Name:Licenciado y General Ignacio López Rayón
ICAO:MMPN
IATA:UPN

Details
Type:Airport (Aerodrome, Airfield)
Latitude:19°23'48"N (19.396692)
Longitude:102°02'21"W (-102.039055)
Datum:WGS 1984
Elevation:5258 ft (1603 m)
Variation:5.69°E (WMM2015 magnetic declination)
-0.11° annual change
Runways:1
Longest:7874 × 148 ft (2400 × 45 m), paved

Time
Time Zone:UTC-6 (DST-5)
Local Time:

Weather
METAR:MMPN 161540Z 00000KT 12SM BKN260 16/12 A3031 RMK 8/001 HZY
TAF:MMPN 161630Z 1618/1718 18010KT P6SM BKN250
FM170300 00000KT P6SM BKN250

Related Locations
Nearby:
Farthest:NKW: 11523 mi / 18544 km
Diego Garcia, Chagos Archipelago, IO

Find:

   beyond  
but within

Other Information
Maps:
NOTAMs:
Links:
Sources:

  
  • flag of México
  • flag of Michoacán de Ocampo
  

Sectional Chart

Flight Planning
at skyvector.com

Satellite Image

Google Maps Satellite view

 

Copyright © 2004-2018 Karl L. Swartz. All rights reserved.
The Great Circle Mapper name and logo are trademarks of the Great Circle Mapper.
All other trademarks mentioned herein belong to their respective owners.
Please see credits for attibutions and further copyright information.

  Follow gcmap on Facebook Follow gcmap on Twitter Follow gcmap on Google+ GCmap on LinkedIn

hCard Microformat

Geo Microformat